Terminal Aerodrome Forecast
Issued by NWS

Home | Current Version | Previous Version | Text Only | Print | Product List | Glossary On
Versions: 1 2 3 4 5 6 7 8 9 10 11 12 13 14 15 16 17 18 19
000
FTAK31 PAJN 190500
TAFAJN
TAF
PAJN 190538Z 1906/2006 VRB08KT P6SM VCSH SCT040 BKN070 OVC100
      TEMPO 1906/1910 6SM -RASN BCFG SCT010 BKN040 OVC100
     FM191700 10008KT P6SM VCSH SCT010 BKN040 OVC060
     FM192000 10011KT P6SM BKN045 OVC100
     FM200300 10010KT 6SM BCFG VCSH SCT010 BKN040=

USA.gov is the U.S. government's official web portal to all federal, state and local government web resources and services.